Time;durP1;ratioP1;P1;durP2;ratioP2;P2;SDS_P1;SDS_P2;PMS_P1;PMS_P2;Temp;Humidity;BMP_temperature;BMP_pressure;BME280_temperature;BME280_humidity;BME280_pressure;Samples;Min_cycle;Max_cycle;Signal;HPM_P1;HPM_P2
2023/03/21 00:01:04;;;;;;;2.35;1.00;;;11.70;53.20;;;;;;2305030;55;20983;-70
2023/03/21 00:03:35;;;;;;;2.53;1.00;;;11.70;53.30;;;;;;2539216;53;20994;-69
2023/03/21 00:06:10;;;;;;;1.80;0.75;;;11.60;53.30;;;;;;2299436;55;20986;-69
2023/03/21 00:08:40;;;;;;;2.00;0.88;;;11.60;53.30;;;;;;2527593;54;21133;-69
2023/03/21 00:11:16;;;;;;;1.97;0.80;;;11.60;53.40;;;;;;2542972;53;20992;-69
2023/03/21 00:13:45;;;;;;;2.72;0.90;;;11.60;53.40;;;;;;2543626;54;20968;-68
2023/03/21 00:16:34;;;;;;;2.12;0.90;;;11.60;53.40;;;;;;2543810;54;21043;-69
2023/03/21 00:19:05;;;;;;;1.77;0.75;;;11.60;53.30;;;;;;2541050;54;20933;-68
2023/03/21 00:21:37;;;;;;;1.60;0.75;;;11.60;53.60;;;;;;2307184;55;21542;-71
2023/03/21 00:24:31;;;;;;;1.62;0.80;;;11.50;53.30;;;;;;2305939;55;21397;-70
2023/03/21 00:27:03;;;;;;;1.77;0.70;;;11.50;53.30;;;;;;2543085;54;20935;-69
2023/03/21 00:29:55;;;;;;;1.55;0.60;;;11.50;53.30;;;;;;2543261;54;20955;-70
2023/03/21 00:32:30;;;;;;;1.70;0.70;;;11.40;53.30;;;;;;2304228;55;20952;-68
2023/03/21 00:35:06;;;;;;;1.85;0.80;;;11.40;53.30;;;;;;2541170;54;21020;-69
2023/03/21 00:38:18;;;;;;;1.62;0.55;;;11.40;53.30;;;;;;2308722;54;21116;-69
2023/03/21 00:40:59;;;;;;;1.55;0.70;;;11.30;53.20;;;;;;2536818;54;21122;-68
2023/03/21 00:43:47;;;;;;;1.65;0.60;;;11.30;53.20;;;;;;2538980;54;20959;-68
2023/03/21 00:46:16;;;;;;;1.05;0.50;;;11.30;53.20;;;;;;2542935;53;21100;-68
2023/03/21 00:48:45;;;;;;;1.75;0.70;;;11.20;53.20;;;;;;2542603;53;20952;-69
2023/03/21 00:51:19;;;;;;;2.10;0.70;;;11.20;53.20;;;;;;2524277;54;20975;-71
2023/03/21 00:54:00;;;;;;;1.55;0.73;;;11.20;53.30;;;;;;2529611;54;21452;-70
2023/03/21 00:56:26;;;;;;;1.45;0.60;;;11.10;53.20;;;;;;2523871;54;21059;-70
2023/03/21 00:58:52;;;;;;;1.92;0.73;;;11.10;53.20;;;;;;2282135;55;20979;-70
2023/03/21 01:01:37;;;;;;;1.70;0.80;;;11.10;53.30;;;;;;2249302;57;21817;-70
2023/03/21 01:04:13;;;;;;;2.17;0.70;;;11.00;53.10;;;;;;2259295;55;21048;-70
2023/03/21 01:06:47;;;;;;;1.85;0.68;;;11.00;53.10;;;;;;2488409;54;21098;-68
2023/03/21 01:09:21;;;;;;;1.55;0.60;;;10.90;53.20;;;;;;2483611;55;20949;-71
2023/03/21 01:11:48;;;;;;;1.33;0.60;;;10.90;53.30;;;;;;2268501;55;21949;-71
2023/03/21 01:14:16;;;;;;;1.25;0.68;;;10.80;53.40;;;;;;2248417;55;21079;-69
2023/03/21 01:16:59;;;;;;;1.10;0.57;;;10.80;53.50;;;;;;2489783;54;20987;-68
2023/03/21 01:19:40;;;;;;;1.67;0.70;;;10.80;53.60;;;;;;2518492;54;21003;-70
2023/03/21 01:22:23;;;;;;;2.22;0.93;;;10.70;53.60;;;;;;2523387;54;21045;-71
2023/03/21 01:24:50;;;;;;;1.30;0.60;;;10.80;53.90;;;;;;2521816;54;21051;-71
2023/03/21 01:27:22;;;;;;;2.08;0.60;;;10.70;53.90;;;;;;2505016;54;21797;-70
2023/03/21 01:30:08;;;;;;;2.55;0.80;;;10.70;54.00;;;;;;2499241;54;22022;-71
2023/03/21 01:32:58;;;;;;;1.70;0.77;;;10.70;54.00;;;;;;2520987;54;22067;-68
2023/03/21 01:35:40;;;;;;;1.62;0.57;;;10.70;54.00;;;;;;2536527;54;21150;-68
2023/03/21 01:38:17;;;;;;;1.70;0.68;;;10.70;54.60;;;;;;2300172;55;21079;-69
2023/03/21 01:40:45;;;;;;;1.45;0.70;;;10.70;54.00;;;;;;2526351;54;20999;-69
2023/03/21 01:44:22;;;;;;;1.62;0.70;;;10.60;53.80;;;;;;2299316;54;20983;-69
2023/03/21 01:46:52;;;;;;;1.45;0.60;;;10.60;53.80;;;;;;2524588;54;21182;-68
2023/03/21 01:49:57;;;;;;;1.80;0.75;;;10.60;53.70;;;;;;2298207;54;20983;-70
2023/03/21 01:52:38;;;;;;;2.05;0.60;;;10.60;53.80;;;;;;2525524;54;21039;-71
2023/03/21 01:55:11;;;;;;;2.22;0.70;;;10.60;53.80;;;;;;2532187;54;21967;-70
2023/03/21 01:57:46;;;;;;;2.12;0.80;;;10.50;53.60;;;;;;2508980;54;20963;-70
2023/03/21 02:00:32;;;;;;;1.42;0.65;;;10.50;53.60;;;;;;2402813;56;21154;-68
2023/03/21 02:03:02;;;;;;;1.52;0.60;;;10.50;53.60;;;;;;2399926;57;21049;-68
2023/03/21 02:05:59;;;;;;;1.48;0.70;;;10.50;53.60;;;;;;2412231;56;21013;-68
2023/03/21 02:08:27;;;;;;;1.23;0.60;;;10.40;53.70;;;;;;2393193;57;21104;-69
2023/03/21 02:11:05;;;;;;;1.40;0.60;;;10.40;53.80;;;;;;2196436;57;21013;-70
2023/03/21 02:13:48;;;;;;;1.50;0.70;;;10.30;53.80;;;;;;2413883;57;21610;-70
2023/03/21 02:16:58;;;;;;;1.65;0.60;;;10.30;53.80;;;;;;2407532;57;21513;-68
2023/03/21 02:20:05;;;;;;;1.62;0.60;;;10.20;53.70;;;;;;2200313;57;21646;-68
2023/03/21 02:23:39;;;;;;;2.40;0.90;;;10.20;53.80;;;;;;2385381;58;21073;-70
2023/03/21 02:29:55;;;;;;;1.73;0.70;;;10.20;54.10;;;;;;2383464;58;21025;-68
2023/03/21 02:33:24;;;;;;;1.37;0.70;;;10.10;53.80;;;;;;2503334;54;20943;-70
2023/03/21 02:38:03;;;;;;;1.17;0.45;;;10.00;53.70;;;;;;2279297;54;21592;-68
2023/03/21 02:42:02;;;;;;;0.68;0.40;;;10.00;53.70;;;;;;2277420;56;21393;-68
2023/03/21 02:45:04;;;;;;;1.62;0.70;;;9.90;54.70;;;;;;2512473;54;21595;-70
2023/03/21 02:47:38;;;;;;;1.15;0.57;;;9.90;54.70;;;;;;2512185;54;20966;-68
2023/03/21 02:56:57;;;;;;;1.30;0.60;;;9.80;54.70;;;;;;2495887;54;21007;-68
2023/03/21 02:59:34;;;;;;;1.08;0.50;;;9.80;54.80;;;;;;2543828;53;21128;-68
2023/03/21 03:02:11;;;;;;;2.97;0.52;;;9.70;54.60;;;;;;2518631;54;21078;-71
2023/03/21 03:04:48;;;;;;;1.60;0.70;;;9.70;54.70;;;;;;2530522;53;20989;-69
2023/03/21 03:09:37;;;;;;;1.60;0.70;;;9.70;54.90;;;;;;2515316;54;21346;-68
2023/03/21 03:12:12;;;;;;;1.02;0.47;;;9.60;54.90;;;;;;2539150;54;21011;-69
2023/03/21 03:14:50;;;;;;;0.68;0.40;;;9.60;54.90;;;;;;2302308;55;20924;-69
2023/03/21 03:19:08;;;;;;;2.92;0.60;;;9.50;54.90;;;;;;2540590;54;20966;-70
2023/03/21 03:21:57;;;;;;;1.58;0.60;;;9.50;54.90;;;;;;2302288;55;20935;-69
2023/03/21 03:24:30;;;;;;;0.93;0.52;;;9.50;54.90;;;;;;2540531;54;21003;-70
2023/03/21 03:27:21;;;;;;;1.33;0.60;;;9.50;54.90;;;;;;2301739;55;22160;-68
2023/03/21 03:29:47;;;;;;;1.62;0.60;;;9.50;54.90;;;;;;2302414;55;20967;-70
2023/03/21 03:32:19;;;;;;;1.85;0.75;;;9.40;54.90;;;;;;2301477;55;20968;-70
2023/03/21 03:34:55;;;;;;;1.52;0.70;;;9.40;55.00;;;;;;2540691;54;20968;-70
2023/03/21 03:37:25;;;;;;;1.95;0.60;;;9.40;55.00;;;;;;2301586;55;21484;-68
2023/03/21 03:39:57;;;;;;;1.80;0.68;;;9.40;55.60;;;;;;2301768;55;20971;-69
2023/03/21 03:42:27;;;;;;;2.08;0.80;;;9.30;55.50;;;;;;2301812;55;21579;-70
2023/03/21 03:44:54;;;;;;;1.85;0.80;;;9.30;55.00;;;;;;2301282;55;21543;-70
2023/03/21 03:47:32;;;;;;;1.62;0.68;;;9.30;55.10;;;;;;2540041;54;21630;-70
2023/03/21 03:50:15;;;;;;;2.10;0.65;;;9.30;55.20;;;;;;2300793;55;21135;-70
2023/03/21 03:52:49;;;;;;;1.58;0.65;;;9.20;55.10;;;;;;2303575;55;21071;-68
2023/03/21 03:55:22;;;;;;;1.65;0.60;;;9.20;55.10;;;;;;2539869;54;21079;-70
2023/03/21 03:57:49;;;;;;;1.00;0.50;;;9.20;55.10;;;;;;2540618;54;20935;-69
2023/03/21 04:00:17;;;;;;;1.58;0.68;;;9.10;55.10;;;;;;2540149;54;20931;-70
2023/03/21 04:02:44;;;;;;;1.27;0.57;;;9.10;55.20;;;;;;2302984;55;20971;-70
2023/03/21 04:05:14;;;;;;;3.15;0.90;;;9.10;55.20;;;;;;2302126;55;21023;-68
2023/03/21 04:07:43;;;;;;;1.85;0.80;;;9.00;55.20;;;;;;2541725;54;21877;-69
2023/03/21 04:10:10;;;;;;;1.55;0.60;;;9.00;55.30;;;;;;2540658;54;21031;-69
2023/03/21 04:12:36;;;;;;;2.40;0.93;;;9.00;55.30;;;;;;2303021;55;20991;-70
2023/03/21 04:15:05;;;;;;;1.12;0.57;;;9.00;55.30;;;;;;2301789;55;21054;-70
2023/03/21 04:17:38;;;;;;;2.30;0.82;;;9.00;55.30;;;;;;2542231;54;21091;-70
2023/03/21 04:20:06;;;;;;;3.37;0.90;;;8.90;55.30;;;;;;2305145;55;21076;-70
2023/03/21 04:22:38;;;;;;;1.65;0.70;;;8.90;55.30;;;;;;2527869;53;21015;-69
2023/03/21 04:25:06;;;;;;;1.62;0.70;;;8.90;55.30;;;;;;2293313;55;21499;-67
2023/03/21 04:27:33;;;;;;;2.75;0.80;;;8.90;55.40;;;;;;2294460;55;20965;-68
2023/03/21 04:30:01;;;;;;;1.55;0.65;;;8.90;55.40;;;;;;2294597;55;21059;-71
2023/03/21 04:32:32;;;;;;;1.62;0.70;;;8.90;55.40;;;;;;2541723;54;21024;-69
2023/03/21 04:35:00;;;;;;;1.90;0.70;;;8.90;55.40;;;;;;2537207;53;20960;-69
2023/03/21 04:37:26;;;;;;;1.67;0.77;;;8.80;55.30;;;;;;2302689;55;21000;-70
2023/03/21 04:39:53;;;;;;;2.22;0.70;;;8.80;55.30;;;;;;2303632;55;22031;-68
2023/03/21 04:42:22;;;;;;;1.40;0.65;;;8.80;55.30;;;;;;2302454;55;21804;-68
2023/03/21 04:44:48;;;;;;;1.65;0.80;;;8.80;55.40;;;;;;2541613;54;20944;-71
2023/03/21 04:47:15;;;;;;;2.08;0.73;;;8.80;55.40;;;;;;2541054;54;21012;-68
2023/03/21 04:49:42;;;;;;;1.55;0.75;;;8.80;55.40;;;;;;2302452;55;21004;-69
2023/03/21 04:52:08;;;;;;;2.20;0.73;;;8.80;55.40;;;;;;2301991;55;21007;-69
2023/03/21 04:54:34;;;;;;;1.95;0.80;;;8.70;55.30;;;;;;2541848;54;20984;-71
2023/03/21 04:57:01;;;;;;;1.40;0.60;;;8.70;55.30;;;;;;2301961;55;21081;-71
2023/03/21 04:59:27;;;;;;;1.83;0.85;;;8.70;55.30;;;;;;2303041;55;21032;-70
2023/03/21 05:01:55;;;;;;;1.95;0.85;;;8.70;55.30;;;;;;2542239;54;21076;-70
2023/03/21 05:04:25;;;;;;;1.20;0.70;;;8.70;55.40;;;;;;2541156;54;20924;-68
2023/03/21 05:06:51;;;;;;;1.17;0.52;;;8.60;55.40;;;;;;2302463;55;20966;-67
2023/03/21 05:09:19;;;;;;;1.90;0.70;;;8.60;55.40;;;;;;2540783;54;20983;-70
2023/03/21 05:11:46;;;;;;;2.03;0.80;;;8.60;55.40;;;;;;2302488;55;20928;-71
2023/03/21 05:14:15;;;;;;;2.83;1.10;;;8.60;55.40;;;;;;2540215;54;21115;-68
2023/03/21 05:16:51;;;;;;;2.10;0.80;;;8.60;55.40;;;;;;2303121;55;20956;-70
2023/03/21 05:19:19;;;;;;;2.25;1.00;;;8.60;55.70;;;;;;2302008;55;21511;-71
2023/03/21 05:21:45;;;;;;;2.37;0.95;;;8.50;55.40;;;;;;2541151;54;21053;-68
2023/03/21 05:24:16;;;;;;;2.28;1.10;;;8.50;55.50;;;;;;2302459;54;21026;-69
2023/03/21 05:26:54;;;;;;;2.78;1.12;;;8.50;55.60;;;;;;2541798;54;21064;-68
2023/03/21 05:29:21;;;;;;;2.20;1.05;;;8.50;55.60;;;;;;2301116;54;20956;-68
2023/03/21 05:31:53;;;;;;;1.87;0.88;;;8.50;55.60;;;;;;2302685;55;20936;-70
2023/03/21 05:34:19;;;;;;;2.55;0.93;;;8.50;55.60;;;;;;2301338;55;20935;-69
2023/03/21 05:36:46;;;;;;;2.60;0.98;;;8.50;55.60;;;;;;2302895;55;20996;-69
2023/03/21 05:39:12;;;;;;;2.12;0.93;;;8.50;55.70;;;;;;2540634;54;20943;-71
2023/03/21 05:41:38;;;;;;;2.05;0.80;;;8.50;55.70;;;;;;2542259;54;22057;-68
2023/03/21 05:44:05;;;;;;;1.85;0.85;;;8.50;55.70;;;;;;2540858;53;20952;-67
2023/03/21 05:46:31;;;;;;;1.45;0.73;;;8.40;55.70;;;;;;2302910;55;21063;-68
2023/03/21 05:48:58;;;;;;;2.55;0.93;;;8.40;55.70;;;;;;2542202;54;21091;-68
2023/03/21 05:51:27;;;;;;;3.58;1.17;;;8.40;55.80;;;;;;2302054;55;20980;-70
2023/03/21 05:53:54;;;;;;;3.53;1.33;;;8.40;55.90;;;;;;2303031;54;21452;-69
2023/03/21 05:56:22;;;;;;;3.08;1.30;;;8.40;55.90;;;;;;2302542;55;21039;-70
2023/03/21 05:58:49;;;;;;;2.40;1.08;;;8.40;56.00;;;;;;2541460;54;21408;-70
2023/03/21 06:01:16;;;;;;;2.12;0.90;;;8.40;56.00;;;;;;2301859;55;20971;-70
2023/03/21 06:03:42;;;;;;;2.10;1.10;;;8.40;56.00;;;;;;2541667;54;20947;-68
2023/03/21 06:06:11;;;;;;;2.40;1.00;;;8.40;56.00;;;;;;2301889;55;20996;-70
2023/03/21 06:08:38;;;;;;;4.12;1.15;;;8.40;56.00;;;;;;2302707;55;21091;-69
2023/03/21 06:11:05;;;;;;;2.72;1.20;;;8.40;56.10;;;;;;2302365;55;22295;-71
2023/03/21 06:13:31;;;;;;;2.72;1.27;;;8.40;56.10;;;;;;2541213;54;20948;-71
2023/03/21 06:15:57;;;;;;;2.87;1.30;;;8.40;56.20;;;;;;2302642;55;21390;-68
2023/03/21 06:18:25;;;;;;;2.83;1.27;;;8.40;56.20;;;;;;2302381;55;21384;-70
2023/03/21 06:20:51;;;;;;;3.92;1.85;;;8.50;56.40;;;;;;2303350;55;20927;-71
2023/03/21 06:23:17;;;;;;;4.05;2.08;;;8.50;56.50;;;;;;2540851;54;21095;-70
2023/03/21 06:25:43;;;;;;;3.78;1.90;;;8.50;56.60;;;;;;2303269;55;20980;-69
2023/03/21 06:28:10;;;;;;;3.33;1.50;;;8.50;56.70;;;;;;2302237;55;22024;-70
2023/03/21 06:30:37;;;;;;;3.45;1.52;;;8.50;56.70;;;;;;2539981;53;20956;-69
2023/03/21 06:33:05;;;;;;;2.90;1.40;;;8.60;56.90;;;;;;2304130;55;21040;-69
2023/03/21 06:35:32;;;;;;;4.12;1.50;;;8.60;57.00;;;;;;2303171;55;20963;-68
2023/03/21 06:37:58;;;;;;;3.00;1.42;;;8.70;57.10;;;;;;2541693;54;21959;-69
2023/03/21 06:40:27;;;;;;;3.37;1.50;;;8.70;57.20;;;;;;2302300;55;21024;-68
2023/03/21 06:42:56;;;;;;;3.62;1.67;;;8.70;57.30;;;;;;2303383;55;20980;-69
2023/03/21 06:45:24;;;;;;;3.37;1.60;;;8.80;57.50;;;;;;2301757;55;20955;-69
2023/03/21 06:47:50;;;;;;;3.87;1.90;;;8.80;57.60;;;;;;2541103;54;20965;-68
2023/03/21 06:50:17;;;;;;;3.83;2.12;;;8.90;57.70;;;;;;2540838;53;21005;-70
2023/03/21 06:52:44;;;;;;;3.62;2.00;;;9.00;57.90;;;;;;2295042;55;20969;-71
2023/03/21 06:55:10;;;;;;;4.18;2.10;;;9.10;58.20;;;;;;2527390;54;20947;-69
2023/03/21 06:57:37;;;;;;;3.10;1.52;;;9.10;58.20;;;;;;2302988;55;21098;-69
2023/03/21 07:00:04;;;;;;;4.28;1.90;;;9.20;58.30;;;;;;2301529;55;21066;-69
2023/03/21 07:02:30;;;;;;;3.28;1.77;;;9.40;58.50;;;;;;2541271;54;21327;-70
2023/03/21 07:05:00;;;;;;;3.97;2.00;;;9.50;58.70;;;;;;2541573;54;21003;-70
2023/03/21 07:07:28;;;;;;;4.55;1.98;;;9.60;58.80;;;;;;2541049;53;21049;-69
2023/03/21 07:09:56;;;;;;;3.92;1.90;;;9.70;58.90;;;;;;2302809;54;21592;-69
2023/03/21 07:12:23;;;;;;;3.25;1.48;;;9.80;58.90;;;;;;2301422;54;20992;-69
2023/03/21 07:14:50;;;;;;;2.92;1.20;;;9.90;59.00;;;;;;2540820;54;20992;-69
2023/03/21 07:17:16;;;;;;;2.40;1.00;;;10.00;58.20;;;;;;2540675;54;22099;-69
2023/03/21 07:19:42;;;;;;;2.83;1.50;;;10.10;58.20;;;;;;2541939;54;20964;-69
2023/03/21 07:22:10;;;;;;;2.50;1.08;;;10.20;58.30;;;;;;2302267;55;20939;-71
2023/03/21 07:24:36;;;;;;;4.20;1.30;;;10.30;58.30;;;;;;2541616;54;20987;-71
2023/03/21 07:27:03;;;;;;;3.22;1.50;;;10.50;58.40;;;;;;2541193;54;20935;-71
2023/03/21 07:29:29;;;;;;;2.62;1.33;;;10.60;58.50;;;;;;2541082;54;21031;-71
2023/03/21 07:31:58;;;;;;;2.92;1.50;;;10.70;58.60;;;;;;2302854;55;20967;-71
2023/03/21 07:34:26;;;;;;;2.87;1.33;;;10.80;58.60;;;;;;2540305;54;21002;-69
2023/03/21 07:36:52;;;;;;;3.80;1.67;;;10.90;58.60;;;;;;2541683;54;21976;-71
2023/03/21 07:39:20;;;;;;;5.18;2.12;;;11.00;58.70;;;;;;2539867;53;21067;-71
2023/03/21 07:41:46;;;;;;;2.90;1.42;;;11.20;58.80;;;;;;2302450;55;20980;-69
2023/03/21 07:44:12;;;;;;;3.25;1.70;;;11.30;58.80;;;;;;2540128;54;21107;-69
2023/03/21 07:46:39;;;;;;;3.70;1.55;;;11.40;58.80;;;;;;2542101;54;20969;-70
2023/03/21 07:49:07;;;;;;;3.33;1.62;;;11.50;58.80;;;;;;2540206;53;20956;-70
2023/03/21 07:51:37;;;;;;;3.30;1.75;;;11.60;58.70;;;;;;2302560;55;21024;-70
2023/03/21 07:54:03;;;;;;;2.95;1.33;;;11.70;58.70;;;;;;2540982;54;22170;-71
2023/03/21 07:56:31;;;;;;;3.42;1.60;;;11.90;58.80;;;;;;2540686;54;21000;-70
2023/03/21 07:58:58;;;;;;;3.40;1.50;;;12.00;58.80;;;;;;2302873;55;21007;-70
2023/03/21 08:01:25;;;;;;;3.03;1.20;;;12.10;58.80;;;;;;2302075;55;20995;-71
2023/03/21 08:03:54;;;;;;;2.22;1.08;;;12.30;58.90;;;;;;2543834;54;20952;-71
2023/03/21 08:06:21;;;;;;;2.87;1.30;;;12.30;58.70;;;;;;2540536;54;20987;-70
2023/03/21 08:08:47;;;;;;;2.90;1.35;;;12.40;58.80;;;;;;2302387;55;20967;-70
2023/03/21 08:11:14;;;;;;;2.87;1.20;;;12.50;58.70;;;;;;2305499;55;21058;-69
2023/03/21 08:13:41;;;;;;;2.50;1.25;;;12.60;58.70;;;;;;2302506;55;20975;-71
2023/03/21 08:16:09;;;;;;;2.15;1.08;;;12.70;58.70;;;;;;2540813;54;20964;-71
2023/03/21 08:18:37;;;;;;;2.42;1.12;;;12.80;58.80;;;;;;2542187;54;21091;-72
2023/03/21 08:21:03;;;;;;;2.45;1.10;;;12.90;58.80;;;;;;2540630;54;20928;-71
2023/03/21 08:23:31;;;;;;;2.55;1.17;;;13.00;58.70;;;;;;2303013;55;20963;-72
2023/03/21 08:25:57;;;;;;;2.25;1.10;;;13.10;58.70;;;;;;2542000;54;21003;-72
2023/03/21 08:28:23;;;;;;;2.92;1.40;;;13.30;58.80;;;;;;2302235;55;20960;-72
2023/03/21 08:30:54;;;;;;;2.62;1.20;;;13.40;58.80;;;;;;2304729;54;20952;-72
2023/03/21 08:33:21;;;;;;;2.30;1.05;;;13.40;58.80;;;;;;2304812;55;21235;-72
2023/03/21 08:35:50;;;;;;;3.33;1.30;;;13.50;58.80;;;;;;2303310;55;21056;-73
2023/03/21 08:38:16;;;;;;;5.80;1.42;;;13.60;58.80;;;;;;2302681;55;20935;-71
2023/03/21 08:40:43;;;;;;;4.28;1.73;;;13.70;58.70;;;;;;2541535;54;20976;-71
2023/03/21 08:43:13;;;;;;;5.18;1.80;;;13.80;58.70;;;;;;2541532;54;21578;-72
2023/03/21 08:45:40;;;;;;;3.70;1.62;;;13.90;58.70;;;;;;2541833;53;21031;-72
2023/03/21 08:48:06;;;;;;;4.05;1.50;;;14.00;58.70;;;;;;2541453;54;21095;-71
2023/03/21 08:50:34;;;;;;;3.90;1.83;;;14.10;58.70;;;;;;2541801;54;20960;-71
2023/03/21 08:53:01;;;;;;;4.43;2.15;;;14.20;58.60;;;;;;2303198;55;21520;-71
2023/03/21 08:55:27;;;;;;;3.70;2.00;;;14.30;58.60;;;;;;2306646;54;21436;-72
2023/03/21 08:57:53;;;;;;;4.20;1.83;;;14.40;58.60;;;;;;2302889;54;20975;-71
2023/03/21 09:00:20;;;;;;;3.37;1.52;;;14.50;58.60;;;;;;2302671;55;21478;-71
2023/03/21 09:02:48;;;;;;;5.93;2.08;;;14.60;58.70;;;;;;2541632;53;21055;-71
2023/03/21 09:05:15;;;;;;;3.80;1.67;;;14.70;58.60;;;;;;2541373;54;20991;-72
2023/03/21 09:07:43;;;;;;;3.80;1.60;;;14.80;58.50;;;;;;2303161;55;21063;-71
2023/03/21 09:10:11;;;;;;;5.95;3.10;;;14.90;58.50;;;;;;2302945;55;21083;-72
2023/03/21 09:12:46;;;;;;;6.53;3.75;;;14.90;58.40;;;;;;2541896;54;20943;-72
2023/03/21 09:15:23;;;;;;;5.80;3.62;;;15.10;58.40;;;;;;2540303;53;20999;-72
2023/03/21 09:17:51;;;;;;;5.37;3.25;;;15.20;58.40;;;;;;2302979;55;20971;-71
2023/03/21 09:20:19;;;;;;;4.65;2.65;;;15.30;58.30;;;;;;2294688;55;21037;-73
2023/03/21 09:22:47;;;;;;;4.07;2.08;;;15.40;58.20;;;;;;2533139;54;21054;-70
2023/03/21 09:25:14;;;;;;;3.62;1.62;;;15.50;58.70;;;;;;2303078;55;21043;-70
2023/03/21 09:27:42;;;;;;;4.22;1.87;;;15.50;58.00;;;;;;2542201;54;20963;-72
2023/03/21 09:30:10;;;;;;;3.60;1.40;;;15.60;57.90;;;;;;2306112;55;22097;-71
2023/03/21 09:32:38;;;;;;;2.60;1.12;;;15.70;57.80;;;;;;2520299;53;21065;-71
2023/03/21 09:35:07;;;;;;;3.55;1.98;;;15.80;57.80;;;;;;2299174;55;20956;-72
2023/03/21 09:37:37;;;;;;;3.00;1.40;;;15.90;57.60;;;;;;2302333;55;21019;-72
2023/03/21 09:40:08;;;;;;;3.37;1.80;;;16.00;57.50;;;;;;2302426;55;21066;-69
2023/03/21 09:42:59;;;;;;;2.95;1.27;;;16.10;57.50;;;;;;2306599;55;20959;-71
2023/03/21 09:48:53;;;;;;;3.15;1.52;;;16.20;57.10;;;;;;2514584;54;21897;-71
2023/03/21 09:51:24;;;;;;;3.67;1.42;;;16.30;56.90;;;;;;2303677;55;21993;-72
2023/03/21 09:53:51;;;;;;;3.55;1.77;;;16.40;57.30;;;;;;2542543;54;20916;-72
2023/03/21 09:56:17;;;;;;;3.60;1.55;;;16.50;57.20;;;;;;2302385;55;20975;-72
2023/03/21 09:58:53;;;;;;;3.50;1.50;;;16.60;57.10;;;;;;2542108;54;21480;-71
2023/03/21 10:01:28;;;;;;;3.12;1.75;;;16.70;56.70;;;;;;2302422;54;20971;-71
2023/03/21 10:03:58;;;;;;;5.22;1.75;;;16.80;56.60;;;;;;2542574;54;20949;-71
2023/03/21 10:06:29;;;;;;;3.53;1.90;;;16.90;56.60;;;;;;2540558;53;20975;-71
2023/03/21 10:09:02;;;;;;;3.13;1.63;;;16.90;56.70;;;;;;2285173;55;22054;-73
2023/03/21 10:11:31;;;;;;;3.20;1.35;;;17.00;56.50;;;;;;2306632;55;20983;-73
2023/03/21 10:14:06;;;;;;;3.17;1.40;;;17.10;56.30;;;;;;2542155;54;21088;-71
2023/03/21 10:16:35;;;;;;;2.70;1.30;;;17.20;55.90;;;;;;2540970;53;21856;-72
2023/03/21 10:19:03;;;;;;;3.30;1.50;;;17.30;56.20;;;;;;2541570;54;20940;-70
2023/03/21 10:21:30;;;;;;;2.30;1.20;;;17.30;55.90;;;;;;2303195;55;22080;-71
2023/03/21 10:24:25;;;;;;;2.72;1.40;;;17.40;55.90;;;;;;2303271;55;21074;-72
2023/03/21 10:26:52;;;;;;;3.20;1.37;;;17.50;56.00;;;;;;2541840;54;20935;-70
2023/03/21 10:29:21;;;;;;;3.80;1.50;;;17.60;56.00;;;;;;2303573;55;20972;-71
2023/03/21 10:31:48;;;;;;;5.43;1.42;;;17.60;55.80;;;;;;2541655;54;20943;-71
2023/03/21 10:34:36;;;;;;;3.33;1.52;;;17.70;55.60;;;;;;2541585;54;20955;-71
2023/03/21 10:37:03;;;;;;;3.10;1.20;;;17.80;55.00;;;;;;2541637;54;20959;-72
2023/03/21 10:39:42;;;;;;;2.65;1.23;;;17.90;55.60;;;;;;2541852;54;21506;-71
2023/03/21 10:42:22;;;;;;;2.50;1.10;;;18.00;54.90;;;;;;2541708;54;21597;-72
2023/03/21 10:44:50;;;;;;;2.45;1.10;;;18.00;55.10;;;;;;2306535;54;21105;-72
2023/03/21 10:47:37;;;;;;;3.33;1.40;;;18.00;55.30;;;;;;2518622;54;20967;-72
2023/03/21 10:50:05;;;;;;;2.35;1.10;;;18.10;54.50;;;;;;2302944;54;20972;-72
2023/03/21 10:52:34;;;;;;;2.50;1.20;;;18.20;55.40;;;;;;2303375;55;21011;-73
2023/03/21 10:55:30;;;;;;;3.17;1.35;;;18.30;55.60;;;;;;2542271;54;21003;-72
2023/03/21 10:58:07;;;;;;;2.97;1.30;;;18.40;55.10;;;;;;2306712;55;21029;-72
2023/03/21 11:00:35;;;;;;;3.08;1.30;;;18.50;55.50;;;;;;2541284;54;20964;-72
2023/03/21 11:03:02;;;;;;;2.92;1.48;;;18.60;55.90;;;;;;2541896;54;20956;-71
2023/03/21 11:05:38;;;;;;;3.30;1.60;;;18.80;56.00;;;;;;2542060;54;20948;-72
2023/03/21 11:08:12;;;;;;;2.80;1.35;;;18.90;55.70;;;;;;2302878;55;20995;-73
2023/03/21 11:11:14;;;;;;;3.00;1.40;;;19.10;55.70;;;;;;2303406;55;20955;-71
2023/03/21 11:13:42;;;;;;;2.85;1.20;;;19.20;55.20;;;;;;2306349;55;20965;-71
2023/03/21 11:16:50;;;;;;;3.85;1.20;;;19.40;55.70;;;;;;2302772;55;21927;-72
2023/03/21 11:19:32;;;;;;;2.47;1.10;;;19.50;54.50;;;;;;2304427;55;20939;-71
2023/03/21 11:22:03;;;;;;;2.33;0.95;;;19.70;55.00;;;;;;2305005;55;20944;-71
2023/03/21 11:24:34;;;;;;;3.08;1.10;;;19.70;55.30;;;;;;2542263;54;20976;-74
2023/03/21 11:27:04;;;;;;;2.42;1.12;;;19.80;54.50;;;;;;2305469;55;20959;-72
2023/03/21 11:29:35;;;;;;;2.37;1.00;;;19.90;54.50;;;;;;2303246;55;21035;-72
2023/03/21 11:32:24;;;;;;;2.05;0.90;;;20.00;54.60;;;;;;2541918;54;21054;-69
2023/03/21 11:35:03;;;;;;;2.80;0.98;;;20.10;54.20;;;;;;2542316;54;20975;-72
2023/03/21 11:37:45;;;;;;;2.60;0.95;;;20.20;53.80;;;;;;2303161;55;21913;-73
2023/03/21 11:40:29;;;;;;;3.33;0.88;;;20.30;53.60;;;;;;2303617;55;21419;-73
2023/03/21 11:42:59;;;;;;;2.12;1.00;;;20.40;53.50;;;;;;2542366;54;21452;-73
2023/03/21 11:45:33;;;;;;;2.67;1.10;;;20.50;53.70;;;;;;2541626;54;21131;-73
2023/03/21 11:48:06;;;;;;;1.92;0.88;;;20.60;53.50;;;;;;2542895;54;20990;-72
2023/03/21 11:50:38;;;;;;;2.50;1.08;;;20.60;53.50;;;;;;2541568;54;20920;-72
2023/03/21 11:53:27;;;;;;;2.85;1.00;;;20.70;53.50;;;;;;2542620;54;21590;-71
2023/03/21 11:56:22;;;;;;;2.12;1.02;;;20.80;52.50;;;;;;2304086;55;21074;-75
2023/03/21 11:59:28;;;;;;;1.70;0.80;;;20.90;51.90;;;;;;2304057;55;21007;-73
2023/03/21 12:03:55;;;;;;;1.92;0.88;;;20.90;51.50;;;;;;2303148;55;21088;-73
2023/03/21 12:06:51;;;;;;;1.90;0.70;;;20.90;51.50;;;;;;2303460;55;21043;-76
2023/03/21 12:09:51;;;;;;;2.55;0.93;;;21.00;51.50;;;;;;2532166;54;20976;-74
2023/03/21 12:12:32;;;;;;;2.22;0.98;;;21.00;51.10;;;;;;2541893;54;20971;-74
2023/03/21 12:17:41;;;;;;;2.67;1.10;;;21.00;51.20;;;;;;2542762;54;20932;-69
2023/03/21 12:21:53;;;;;;;2.00;0.80;;;21.10;51.50;;;;;;2542215;54;20990;-72
2023/03/21 12:24:24;;;;;;;2.10;0.90;;;21.20;51.00;;;;;;2541982;54;20995;-73
2023/03/21 12:28:03;;;;;;;2.15;0.82;;;21.20;51.80;;;;;;2303724;55;21082;-71
2023/03/21 12:34:28;;;;;;;1.95;0.90;;;21.30;51.00;;;;;;2541422;53;21223;-71
2023/03/21 12:40:24;;;;;;;1.87;0.77;;;21.30;50.60;;;;;;2542435;54;20960;-71
2023/03/21 12:44:25;;;;;;;1.80;0.77;;;21.40;50.20;;;;;;2304041;55;20943;-71
2023/03/21 12:47:36;;;;;;;1.75;0.70;;;21.40;50.40;;;;;;2303786;55;20940;-70
2023/03/21 12:50:35;;;;;;;1.85;0.70;;;21.40;49.70;;;;;;2542285;54;20939;-71
2023/03/21 12:58:56;;;;;;;2.70;0.80;;;21.40;50.10;;;;;;2542375;54;21039;-70
2023/03/21 13:01:25;;;;;;;2.10;0.60;;;21.50;50.70;;;;;;2542039;54;21151;-71
2023/03/21 13:04:16;;;;;;;2.15;0.98;;;21.40;50.80;;;;;;2302593;55;21046;-71
2023/03/21 13:06:42;;;;;;;1.83;0.77;;;21.40;49.60;;;;;;2542350;54;20944;-72
2023/03/21 13:09:17;;;;;;;4.00;1.50;;;21.40;50.20;;;;;;2541413;54;20916;-70
2023/03/21 13:11:49;;;;;;;2.90;1.23;;;21.40;49.70;;;;;;2541419;54;20967;-71
2023/03/21 13:14:24;;;;;;;2.40;1.00;;;21.40;50.20;;;;;;2303245;55;21023;-70
2023/03/21 13:16:54;;;;;;;2.22;1.00;;;21.40;49.50;;;;;;2526367;54;20923;-71
2023/03/21 13:19:47;;;;;;;3.00;1.00;;;21.40;50.10;;;;;;2542604;54;20932;-70
2023/03/21 13:22:20;;;;;;;;;;;21.40;49.50;;;;;;2307620;55;20956;-70
2023/03/21 13:24:57;;;;;;;1.92;0.88;;;21.40;49.80;;;;;;2304325;55;20852;-71
2023/03/21 13:27:38;;;;;;;2.12;0.95;;;21.50;49.90;;;;;;2542646;54;20936;-69
2023/03/21 13:30:26;;;;;;;2.10;1.00;;;21.50;50.00;;;;;;2304197;55;21331;-70
2023/03/21 13:33:09;;;;;;;2.72;0.98;;;21.50;49.00;;;;;;2543419;54;21007;-70
2023/03/21 13:35:41;;;;;;;2.90;1.17;;;21.50;49.20;;;;;;2308652;55;20984;-69
2023/03/21 13:38:23;;;;;;;1.83;0.75;;;21.50;49.50;;;;;;2303474;55;21090;-69
2023/03/21 13:41:02;;;;;;;;;;;21.50;48.80;;;;;;2546383;54;20939;-70
2023/03/21 13:43:43;;;;;;;2.37;1.10;;;21.50;49.00;;;;;;2542528;54;20148;-70
2023/03/21 13:46:34;;;;;;;2.05;0.88;;;21.50;48.90;;;;;;2304183;55;21035;-70
2023/03/21 13:49:32;;;;;;;2.58;0.80;;;21.40;48.40;;;;;;2304273;55;21882;-70
2023/03/21 13:52:00;;;;;;;2.40;0.93;;;21.40;48.90;;;;;;2543271;54;21071;-70
2023/03/21 13:55:02;;;;;;;2.42;1.00;;;21.40;49.30;;;;;;2304150;55;20924;-70
2023/03/21 13:57:40;;;;;;;1.98;0.90;;;21.30;49.30;;;;;;2307217;55;20972;-70
2023/03/21 14:00:22;;;;;;;2.67;0.93;;;21.30;49.10;;;;;;2543072;54;20923;-69
2023/03/21 14:03:06;;;;;;;3.40;1.30;;;21.30;49.10;;;;;;2304066;55;20991;-70
2023/03/21 14:05:34;;;;;;;2.67;1.12;;;21.30;48.60;;;;;;2543176;53;20961;-71
2023/03/21 14:08:09;;;;;;;2.20;1.00;;;21.30;49.50;;;;;;2285806;55;20936;-69